sensor_id;sensor_type;location;lat;lon;timestamp;temperature;humidity
52743;DHT22;55583;53.012;6.556;2022-08-19T09:25:25;22.70;99.90
52743;DHT22;55583;53.012;6.556;2022-08-19T09:27:52;22.90;99.90
52743;DHT22;55583;53.012;6.556;2022-08-19T09:30:25;23.10;99.90
52743;DHT22;55583;53.012;6.556;2022-08-19T09:32:51;23.30;99.90
52743;DHT22;55583;53.012;6.556;2022-08-19T09:35:22;24.30;99.90
52743;DHT22;55583;53.012;6.556;2022-08-19T09:37:48;26.20;99.90
52743;DHT22;55583;53.012;6.556;2022-08-19T09:40:15;28.10;96.30
52743;DHT22;55583;53.012;6.556;2022-08-19T09:42:41;29.40;91.10
52743;DHT22;55583;53.012;6.556;2022-08-19T09:45:09;30.50;85.60
52743;DHT22;55583;53.012;6.556;2022-08-19T09:47:35;31.60;74.80
52743;DHT22;55583;53.012;6.556;2022-08-19T09:50:05;32.50;69.20
52743;DHT22;55583;53.012;6.556;2022-08-19T09:52:32;33.50;62.90
52743;DHT22;55583;53.012;6.556;2022-08-19T09:54:58;34.30;59.60
52743;DHT22;55583;53.012;6.556;2022-08-19T09:57:24;35.00;59.00
52743;DHT22;55583;53.012;6.556;2022-08-19T09:59:50;36.00;55.50
52743;DHT22;55583;53.012;6.556;2022-08-19T10:02:15;36.50;53.60
52743;DHT22;55583;53.012;6.556;2022-08-19T10:04:41;36.80;53.40
52743;DHT22;55583;53.012;6.556;2022-08-19T10:07:25;37.10;52.20
52743;DHT22;55583;53.012;6.556;2022-08-19T10:09:51;37.50;50.70
52743;DHT22;55583;53.012;6.556;2022-08-19T10:12:16;37.40;49.30
52743;DHT22;55583;53.012;6.556;2022-08-19T10:14:42;36.90;49.20
52743;DHT22;55583;53.012;6.556;2022-08-19T10:17:07;36.50;49.60
52743;DHT22;55583;53.012;6.556;2022-08-19T10:19:33;36.20;49.20
52743;DHT22;55583;53.012;6.556;2022-08-19T10:22:05;36.20;49.70
52743;DHT22;55583;53.012;6.556;2022-08-19T10:24:36;36.60;49.30
52743;DHT22;55583;53.012;6.556;2022-08-19T10:27:02;37.10;50.00
52743;DHT22;55583;53.012;6.556;2022-08-19T10:29:30;37.70;48.70
52743;DHT22;55583;53.012;6.556;2022-08-19T10:31:55;38.00;48.10
52743;DHT22;55583;53.012;6.556;2022-08-19T10:34:23;38.10;47.50
52743;DHT22;55583;53.012;6.556;2022-08-19T10:36:49;37.50;48.20
52743;DHT22;55583;53.012;6.556;2022-08-19T10:39:15;36.90;48.30
52743;DHT22;55583;53.012;6.556;2022-08-19T10:41:41;37.20;48.90
52743;DHT22;55583;53.012;6.556;2022-08-19T10:44:12;37.80;47.70
52743;DHT22;55583;53.012;6.556;2022-08-19T10:46:41;37.80;46.80
52743;DHT22;55583;53.012;6.556;2022-08-19T10:49:09;36.90;48.90
52743;DHT22;55583;53.012;6.556;2022-08-19T10:51:35;36.40;49.50
52743;DHT22;55583;53.012;6.556;2022-08-19T10:54:20;36.30;49.20
52743;DHT22;55583;53.012;6.556;2022-08-19T10:56:45;35.80;50.70
52743;DHT22;55583;53.012;6.556;2022-08-19T10:59:26;35.30;49.80
52743;DHT22;55583;53.012;6.556;2022-08-19T11:02:00;34.70;51.00
52743;DHT22;55583;53.012;6.556;2022-08-19T11:04:27;35.00;50.20
52743;DHT22;55583;53.012;6.556;2022-08-19T11:06:53;34.10;50.90
52743;DHT22;55583;53.012;6.556;2022-08-19T11:09:24;32.80;52.60
52743;DHT22;55583;53.012;6.556;2022-08-19T11:11:50;32.00;56.10
52743;DHT22;55583;53.012;6.556;2022-08-19T11:14:20;32.50;55.30
52743;DHT22;55583;53.012;6.556;2022-08-19T11:16:47;33.70;52.90
52743;DHT22;55583;53.012;6.556;2022-08-19T11:19:14;34.60;51.40
52743;DHT22;55583;53.012;6.556;2022-08-19T11:21:44;35.10;50.20
52743;DHT22;55583;53.012;6.556;2022-08-19T11:24:18;35.90;50.60
52743;DHT22;55583;53.012;6.556;2022-08-19T11:26:45;36.60;48.90
52743;DHT22;55583;53.012;6.556;2022-08-19T11:29:12;37.20;50.00
52743;DHT22;55583;53.012;6.556;2022-08-19T11:31:40;37.30;48.20
52743;DHT22;55583;53.012;6.556;2022-08-19T11:34:08;37.30;48.30
52743;DHT22;55583;53.012;6.556;2022-08-19T11:36:34;37.40;48.00
52743;DHT22;55583;53.012;6.556;2022-08-19T11:39:05;37.00;47.70
52743;DHT22;55583;53.012;6.556;2022-08-19T11:41:30;36.20;48.40
52743;DHT22;55583;53.012;6.556;2022-08-19T11:43:56;36.00;49.30
52743;DHT22;55583;53.012;6.556;2022-08-19T11:46:24;36.40;48.80
52743;DHT22;55583;53.012;6.556;2022-08-19T11:48:51;37.00;48.10
52743;DHT22;55583;53.012;6.556;2022-08-19T11:51:21;37.10;46.90
52743;DHT22;55583;53.012;6.556;2022-08-19T11:53:47;36.80;47.10
52743;DHT22;55583;53.012;6.556;2022-08-19T11:56:13;36.40;47.80
52743;DHT22;55583;53.012;6.556;2022-08-19T11:58:39;36.00;48.00
52743;DHT22;55583;53.012;6.556;2022-08-19T12:01:08;35.40;48.70
52743;DHT22;55583;53.012;6.556;2022-08-19T12:03:34;35.30;48.90
52743;DHT22;55583;53.012;6.556;2022-08-19T12:06:14;35.40;48.30
52743;DHT22;55583;53.012;6.556;2022-08-19T12:08:41;35.60;50.10
52743;DHT22;55583;53.012;6.556;2022-08-19T12:11:07;35.40;50.50
52743;DHT22;55583;53.012;6.556;2022-08-19T12:13:34;34.90;50.70
52743;DHT22;55583;53.012;6.556;2022-08-19T12:16:00;34.40;51.00
52743;DHT22;55583;53.012;6.556;2022-08-19T12:18:26;33.60;50.70
52743;DHT22;55583;53.012;6.556;2022-08-19T12:20:53;33.00;51.60
52743;DHT22;55583;53.012;6.556;2022-08-19T12:23:22;32.60;53.30
52743;DHT22;55583;53.012;6.556;2022-08-19T12:25:49;32.40;53.00
52743;DHT22;55583;53.012;6.556;2022-08-19T12:28:19;32.60;52.90
52743;DHT22;55583;53.012;6.556;2022-08-19T12:30:46;32.70;52.60
52743;DHT22;55583;53.012;6.556;2022-08-19T12:33:11;32.70;51.90
52743;DHT22;55583;53.012;6.556;2022-08-19T12:35:43;33.00;51.30
52743;DHT22;55583;53.012;6.556;2022-08-19T12:38:09;34.10;50.20
52743;DHT22;55583;53.012;6.556;2022-08-19T12:40:35;35.20;49.00
52743;DHT22;55583;53.012;6.556;2022-08-19T12:43:01;36.10;47.00
52743;DHT22;55583;53.012;6.556;2022-08-19T12:45:27;36.30;45.60
52743;DHT22;55583;53.012;6.556;2022-08-19T12:47:53;36.50;45.40
52743;DHT22;55583;53.012;6.556;2022-08-19T12:50:19;36.80;45.30
52743;DHT22;55583;53.012;6.556;2022-08-19T12:52:47;37.20;46.10
52743;DHT22;55583;53.012;6.556;2022-08-19T12:55:13;37.30;45.00
52743;DHT22;55583;53.012;6.556;2022-08-19T12:57:40;36.80;45.20
52743;DHT22;55583;53.012;6.556;2022-08-19T13:00:15;36.30;46.00
52743;DHT22;55583;53.012;6.556;2022-08-19T13:02:44;36.10;46.20
52743;DHT22;55583;53.012;6.556;2022-08-19T13:05:17;35.80;47.10
52743;DHT22;55583;53.012;6.556;2022-08-19T13:07:45;35.50;46.60
52743;DHT22;55583;53.012;6.556;2022-08-19T13:10:15;35.00;47.10
52743;DHT22;55583;53.012;6.556;2022-08-19T13:12:42;34.50;48.20
52743;DHT22;55583;53.012;6.556;2022-08-19T13:15:09;33.80;47.70
52743;DHT22;55583;53.012;6.556;2022-08-19T13:17:35;33.30;48.90
52743;DHT22;55583;53.012;6.556;2022-08-19T13:20:02;33.00;49.70
52743;DHT22;55583;53.012;6.556;2022-08-19T13:22:28;32.70;49.80
52743;DHT22;55583;53.012;6.556;2022-08-19T13:24:54;32.30;50.60
52743;DHT22;55583;53.012;6.556;2022-08-19T13:27:19;32.00;51.60
52743;DHT22;55583;53.012;6.556;2022-08-19T13:29:45;31.70;52.20
52743;DHT22;55583;53.012;6.556;2022-08-19T13:32:29;31.40;53.30
52743;DHT22;55583;53.012;6.556;2022-08-19T13:35:14;31.40;56.20
52743;DHT22;55583;53.012;6.556;2022-08-19T13:37:40;31.50;58.20
52743;DHT22;55583;53.012;6.556;2022-08-19T13:40:19;31.20;60.30
52743;DHT22;55583;53.012;6.556;2022-08-19T13:42:47;30.50;64.20
52743;DHT22;55583;53.012;6.556;2022-08-19T13:45:18;29.90;67.10
52743;DHT22;55583;53.012;6.556;2022-08-19T13:47:52;29.40;72.90
52743;DHT22;55583;53.012;6.556;2022-08-19T13:50:22;28.80;79.60
52743;DHT22;55583;53.012;6.556;2022-08-19T13:52:51;28.40;83.70
52743;DHT22;55583;53.012;6.556;2022-08-19T13:55:17;28.10;86.80
52743;DHT22;55583;53.012;6.556;2022-08-19T13:57:43;27.80;89.60
52743;DHT22;55583;53.012;6.556;2022-08-19T14:00:13;27.50;89.60
52743;DHT22;55583;53.012;6.556;2022-08-19T14:02:39;27.40;88.90
52743;DHT22;55583;53.012;6.556;2022-08-19T14:05:07;27.20;88.10
52743;DHT22;55583;53.012;6.556;2022-08-19T14:07:32;26.90;88.60
52743;DHT22;55583;53.012;6.556;2022-08-19T14:09:58;26.60;89.00
52743;DHT22;55583;53.012;6.556;2022-08-19T14:12:24;26.50;89.70
52743;DHT22;55583;53.012;6.556;2022-08-19T14:14:49;26.40;89.50
52743;DHT22;55583;53.012;6.556;2022-08-19T14:17:15;26.50;88.40
52743;DHT22;55583;53.012;6.556;2022-08-19T14:19:42;26.70;86.60
52743;DHT22;55583;53.012;6.556;2022-08-19T14:22:08;27.30;85.40
52743;DHT22;55583;53.012;6.556;2022-08-19T14:24:33;28.10;83.00
52743;DHT22;55583;53.012;6.556;2022-08-19T14:27:00;28.90;78.00
52743;DHT22;55583;53.012;6.556;2022-08-19T14:29:26;29.40;75.50
52743;DHT22;55583;53.012;6.556;2022-08-19T14:31:54;29.60;73.50
52743;DHT22;55583;53.012;6.556;2022-08-19T14:34:21;29.50;72.90
52743;DHT22;55583;53.012;6.556;2022-08-19T14:36:47;29.30;73.40
52743;DHT22;55583;53.012;6.556;2022-08-19T14:39:13;29.10;74.40
52743;DHT22;55583;53.012;6.556;2022-08-19T14:41:40;28.80;74.90
52743;DHT22;55583;53.012;6.556;2022-08-19T14:44:06;28.60;76.50
52743;DHT22;55583;53.012;6.556;2022-08-19T14:46:32;28.30;77.90
52743;DHT22;55583;53.012;6.556;2022-08-19T14:48:57;27.90;79.60
52743;DHT22;55583;53.012;6.556;2022-08-19T14:51:24;27.60;80.70
52743;DHT22;55583;53.012;6.556;2022-08-19T14:53:51;27.40;80.60
52743;DHT22;55583;53.012;6.556;2022-08-19T14:56:20;27.30;81.50
52743;DHT22;55583;53.012;6.556;2022-08-19T14:58:46;27.20;81.20
52743;DHT22;55583;53.012;6.556;2022-08-19T15:01:13;27.10;81.10
52743;DHT22;55583;53.012;6.556;2022-08-19T15:03:39;27.00;80.40
52743;DHT22;55583;53.012;6.556;2022-08-19T15:06:07;26.80;80.40
52743;DHT22;55583;53.012;6.556;2022-08-19T15:08:34;26.80;81.00
52743;DHT22;55583;53.012;6.556;2022-08-19T15:11:01;27.10;80.90
52743;DHT22;55583;53.012;6.556;2022-08-19T15:13:28;27.50;79.30
52743;DHT22;55583;53.012;6.556;2022-08-19T15:15:55;27.90;77.20
52743;DHT22;55583;53.012;6.556;2022-08-19T15:18:21;28.10;75.40
52743;DHT22;55583;53.012;6.556;2022-08-19T15:20:47;28.10;76.90
52743;DHT22;55583;53.012;6.556;2022-08-19T15:23:15;28.30;77.30
52743;DHT22;55583;53.012;6.556;2022-08-19T15:25:41;28.60;76.60
52743;DHT22;55583;53.012;6.556;2022-08-19T15:28:07;28.60;76.80
52743;DHT22;55583;53.012;6.556;2022-08-19T15:30:33;28.80;77.10
52743;DHT22;55583;53.012;6.556;2022-08-19T15:32:59;29.00;76.70
52743;DHT22;55583;53.012;6.556;2022-08-19T15:35:25;29.20;75.60
52743;DHT22;55583;53.012;6.556;2022-08-19T15:37:52;29.20;73.20
52743;DHT22;55583;53.012;6.556;2022-08-19T15:40:19;29.10;72.20
52743;DHT22;55583;53.012;6.556;2022-08-19T15:42:45;28.70;70.80
52743;DHT22;55583;53.012;6.556;2022-08-19T15:45:12;28.40;71.00
52743;DHT22;55583;53.012;6.556;2022-08-19T15:47:39;27.90;71.70
52743;DHT22;55583;53.012;6.556;2022-08-19T15:50:18;27.70;72.70
52743;DHT22;55583;53.012;6.556;2022-08-19T15:52:55;27.50;72.80
52743;DHT22;55583;53.012;6.556;2022-08-19T15:55:25;27.40;73.00
52743;DHT22;55583;53.012;6.556;2022-08-19T15:57:51;27.30;74.00
52743;DHT22;55583;53.012;6.556;2022-08-19T16:00:36;27.20;73.60
52743;DHT22;55583;53.012;6.556;2022-08-19T16:03:20;27.10;73.60
52743;DHT22;55583;53.012;6.556;2022-08-19T16:06:04;26.90;73.80
52743;DHT22;55583;53.012;6.556;2022-08-19T16:08:48;26.70;74.50
52743;DHT22;55583;53.012;6.556;2022-08-19T16:11:17;26.50;75.70
52743;DHT22;55583;53.012;6.556;2022-08-19T16:13:46;26.30;76.50
52743;DHT22;55583;53.012;6.556;2022-08-19T16:16:13;26.20;77.30
52743;DHT22;55583;53.012;6.556;2022-08-19T16:18:39;26.30;78.40
52743;DHT22;55583;53.012;6.556;2022-08-19T16:21:05;26.00;79.50
52743;DHT22;55583;53.012;6.556;2022-08-19T16:23:33;26.10;80.10
52743;DHT22;55583;53.012;6.556;2022-08-19T16:25:59;26.00;80.20
52743;DHT22;55583;53.012;6.556;2022-08-19T16:28:25;25.90;80.60
52743;DHT22;55583;53.012;6.556;2022-08-19T16:30:51;25.90;81.30
52743;DHT22;55583;53.012;6.556;2022-08-19T16:33:16;25.90;81.50
52743;DHT22;55583;53.012;6.556;2022-08-19T16:35:42;26.00;81.70
52743;DHT22;55583;53.012;6.556;2022-08-19T16:38:08;26.00;81.20
52743;DHT22;55583;53.012;6.556;2022-08-19T16:40:34;26.00;81.20
52743;DHT22;55583;53.012;6.556;2022-08-19T16:43:00;25.90;81.10
52743;DHT22;55583;53.012;6.556;2022-08-19T16:45:27;25.90;81.60
52743;DHT22;55583;53.012;6.556;2022-08-19T16:47:53;25.80;82.20
52743;DHT22;55583;53.012;6.556;2022-08-19T16:50:18;25.80;83.70
52743;DHT22;55583;53.012;6.556;2022-08-19T16:52:46;25.80;84.30
52743;DHT22;55583;53.012;6.556;2022-08-19T16:55:12;25.80;85.10
52743;DHT22;55583;53.012;6.556;2022-08-19T16:57:38;25.90;85.00
52743;DHT22;55583;53.012;6.556;2022-08-19T17:00:05;25.90;85.50
52743;DHT22;55583;53.012;6.556;2022-08-19T17:02:36;25.80;85.00
52743;DHT22;55583;53.012;6.556;2022-08-19T17:05:05;25.70;85.30
52743;DHT22;55583;53.012;6.556;2022-08-19T17:07:31;25.60;86.40
52743;DHT22;55583;53.012;6.556;2022-08-19T17:09:57;25.40;87.10
52743;DHT22;55583;53.012;6.556;2022-08-19T17:12:24;25.40;88.30
52743;DHT22;55583;53.012;6.556;2022-08-19T17:14:50;25.40;88.50
52743;DHT22;55583;53.012;6.556;2022-08-19T17:17:15;25.40;88.80
52743;DHT22;55583;53.012;6.556;2022-08-19T17:19:42;25.30;89.70
52743;DHT22;55583;53.012;6.556;2022-08-19T17:22:09;25.30;89.80
52743;DHT22;55583;53.012;6.556;2022-08-19T17:24:35;25.20;90.20
52743;DHT22;55583;53.012;6.556;2022-08-19T17:27:03;25.20;90.80
52743;DHT22;55583;53.012;6.556;2022-08-19T17:29:30;25.20;91.50
52743;DHT22;55583;53.012;6.556;2022-08-19T17:31:57;25.10;91.70
52743;DHT22;55583;53.012;6.556;2022-08-19T17:34:22;25.10;91.90
52743;DHT22;55583;53.012;6.556;2022-08-19T17:36:48;25.10;92.30
52743;DHT22;55583;53.012;6.556;2022-08-19T17:39:13;25.00;92.90
52743;DHT22;55583;53.012;6.556;2022-08-19T17:41:39;24.90;93.60
52743;DHT22;55583;53.012;6.556;2022-08-19T17:44:05;24.90;94.40
52743;DHT22;55583;53.012;6.556;2022-08-19T17:46:31;24.80;95.00
52743;DHT22;55583;53.012;6.556;2022-08-19T17:48:57;24.70;95.90
52743;DHT22;55583;53.012;6.556;2022-08-19T17:53:57;24.60;97.60
52743;DHT22;55583;53.012;6.556;2022-08-19T17:56:23;24.50;98.20
52743;DHT22;55583;53.012;6.556;2022-08-19T17:58:53;24.40;98.90
52743;DHT22;55583;53.012;6.556;2022-08-19T18:01:18;24.30;99.40
52743;DHT22;55583;53.012;6.556;2022-08-19T18:03:44;24.30;99.90
52743;DHT22;55583;53.012;6.556;2022-08-19T18:06:10;24.30;99.90
52743;DHT22;55583;53.012;6.556;2022-08-19T18:08:39;24.20;99.90
52743;DHT22;55583;53.012;6.556;2022-08-19T18:11:08;24.20;99.90
52743;DHT22;55583;53.012;6.556;2022-08-19T18:13:35;24.10;99.90
52743;DHT22;55583;53.012;6.556;2022-08-19T18:16:02;24.10;99.90
52743;DHT22;55583;53.012;6.556;2022-08-19T18:18:28;23.90;99.90
52743;DHT22;55583;53.012;6.556;2022-08-19T18:20:54;23.90;99.90
52743;DHT22;55583;53.012;6.556;2022-08-19T18:23:21;23.80;99.90
52743;DHT22;55583;53.012;6.556;2022-08-19T18:25:47;23.70;99.90
52743;DHT22;55583;53.012;6.556;2022-08-19T18:28:12;23.50;99.90
52743;DHT22;55583;53.012;6.556;2022-08-19T18:30:38;23.30;99.90
52743;DHT22;55583;53.012;6.556;2022-08-19T18:33:07;23.10;99.90
52743;DHT22;55583;53.012;6.556;2022-08-19T18:35:42;22.80;99.90
52743;DHT22;55583;53.012;6.556;2022-08-19T18:38:14;22.80;99.90
52743;DHT22;55583;53.012;6.556;2022-08-19T18:40:59;22.60;99.90
52743;DHT22;55583;53.012;6.556;2022-08-19T18:43:43;22.50;99.90
52743;DHT22;55583;53.012;6.556;2022-08-19T18:46:28;22.40;99.90
52743;DHT22;55583;53.012;6.556;2022-08-19T18:49:21;22.40;99.90
52743;DHT22;55583;53.012;6.556;2022-08-19T18:51:47;22.40;99.90
52743;DHT22;55583;53.012;6.556;2022-08-19T18:54:12;22.40;99.90
52743;DHT22;55583;53.012;6.556;2022-08-19T18:56:38;22.30;99.90
52743;DHT22;55583;53.012;6.556;2022-08-19T18:59:10;22.30;99.90
52743;DHT22;55583;53.012;6.556;2022-08-19T19:01:37;22.30;99.90
52743;DHT22;55583;53.012;6.556;2022-08-19T19:04:08;22.30;99.90
52743;DHT22;55583;53.012;6.556;2022-08-19T19:06:39;22.20;99.90
52743;DHT22;55583;53.012;6.556;2022-08-19T19:09:18;22.20;99.90
52743;DHT22;55583;53.012;6.556;2022-08-19T19:11:50;22.20;99.90
52743;DHT22;55583;53.012;6.556;2022-08-19T19:14:22;22.20;99.90
52743;DHT22;55583;53.012;6.556;2022-08-19T19:16:50;22.20;99.90
52743;DHT22;55583;53.012;6.556;2022-08-19T19:19:16;22.10;99.90
52743;DHT22;55583;53.012;6.556;2022-08-19T19:21:45;22.10;99.90
52743;DHT22;55583;53.012;6.556;2022-08-19T19:24:18;22.00;99.90
52743;DHT22;55583;53.012;6.556;2022-08-19T19:26:45;21.90;99.90
52743;DHT22;55583;53.012;6.556;2022-08-19T19:29:11;21.80;99.90
52743;DHT22;55583;53.012;6.556;2022-08-19T19:31:37;21.70;99.90
52743;DHT22;55583;53.012;6.556;2022-08-19T19:34:03;21.60;99.90
52743;DHT22;55583;53.012;6.556;2022-08-19T19:36:29;21.50;99.90
52743;DHT22;55583;53.012;6.556;2022-08-19T19:38:54;21.50;99.90
52743;DHT22;55583;53.012;6.556;2022-08-19T19:41:22;21.50;99.90
52743;DHT22;55583;53.012;6.556;2022-08-19T19:43:52;21.50;99.90
52743;DHT22;55583;53.012;6.556;2022-08-19T19:46:18;21.50;99.90
52743;DHT22;55583;53.012;6.556;2022-08-19T19:48:44;21.40;99.90
52743;DHT22;55583;53.012;6.556;2022-08-19T19:51:12;21.30;99.90
52743;DHT22;55583;53.012;6.556;2022-08-19T19:53:38;21.30;99.90
52743;DHT22;55583;53.012;6.556;2022-08-19T19:56:04;21.30;99.90
52743;DHT22;55583;53.012;6.556;2022-08-19T19:58:32;21.20;99.90
52743;DHT22;55583;53.012;6.556;2022-08-19T20:01:01;21.10;99.90
52743;DHT22;55583;53.012;6.556;2022-08-19T20:03:27;21.10;99.90
52743;DHT22;55583;53.012;6.556;2022-08-19T20:05:53;21.00;99.90
52743;DHT22;55583;53.012;6.556;2022-08-19T20:08:18;21.00;99.90
52743;DHT22;55583;53.012;6.556;2022-08-19T20:11:05;21.00;99.90
52743;DHT22;55583;53.012;6.556;2022-08-19T20:13:32;20.90;99.90
52743;DHT22;55583;53.012;6.556;2022-08-19T20:15:59;20.90;99.90
52743;DHT22;55583;53.012;6.556;2022-08-19T20:18:25;20.90;99.90
52743;DHT22;55583;53.012;6.556;2022-08-19T20:20:51;20.80;99.90
52743;DHT22;55583;53.012;6.556;2022-08-19T20:23:19;20.80;99.90
52743;DHT22;55583;53.012;6.556;2022-08-19T20:25:46;20.80;99.90
52743;DHT22;55583;53.012;6.556;2022-08-19T20:28:12;20.80;99.90
52743;DHT22;55583;53.012;6.556;2022-08-19T20:30:38;20.80;99.90
52743;DHT22;55583;53.012;6.556;2022-08-19T20:33:04;20.80;99.90
52743;DHT22;55583;53.012;6.556;2022-08-19T20:35:35;20.80;99.90
52743;DHT22;55583;53.012;6.556;2022-08-19T20:38:01;20.80;99.90
52743;DHT22;55583;53.012;6.556;2022-08-19T20:40:28;20.90;99.90
52743;DHT22;55583;53.012;6.556;2022-08-19T20:42:54;20.90;99.90
52743;DHT22;55583;53.012;6.556;2022-08-19T20:45:22;20.90;99.90
52743;DHT22;55583;53.012;6.556;2022-08-19T20:47:48;20.90;99.90
52743;DHT22;55583;53.012;6.556;2022-08-19T20:50:14;20.90;99.90
52743;DHT22;55583;53.012;6.556;2022-08-19T20:52:42;20.90;99.90
52743;DHT22;55583;53.012;6.556;2022-08-19T20:55:09;20.90;99.90
52743;DHT22;55583;53.012;6.556;2022-08-19T20:57:35;21.00;99.90
52743;DHT22;55583;53.012;6.556;2022-08-19T21:00:06;21.00;99.90
52743;DHT22;55583;53.012;6.556;2022-08-19T21:02:35;21.00;99.90
52743;DHT22;55583;53.012;6.556;2022-08-19T21:05:01;21.00;99.90
52743;DHT22;55583;53.012;6.556;2022-08-19T21:07:26;21.00;99.90
52743;DHT22;55583;53.012;6.556;2022-08-19T21:09:52;21.00;99.90
52743;DHT22;55583;53.012;6.556;2022-08-19T21:12:18;21.00;99.90
52743;DHT22;55583;53.012;6.556;2022-08-19T21:14:44;20.90;99.90
52743;DHT22;55583;53.012;6.556;2022-08-19T21:17:10;20.90;99.90
52743;DHT22;55583;53.012;6.556;2022-08-19T21:19:35;20.90;99.90
52743;DHT22;55583;53.012;6.556;2022-08-19T21:22:02;20.90;99.90
52743;DHT22;55583;53.012;6.556;2022-08-19T21:24:28;20.90;99.90
52743;DHT22;55583;53.012;6.556;2022-08-19T21:26:53;20.90;99.90
52743;DHT22;55583;53.012;6.556;2022-08-19T21:29:19;20.90;99.90
52743;DHT22;55583;53.012;6.556;2022-08-19T21:31:44;20.90;99.90
52743;DHT22;55583;53.012;6.556;2022-08-19T21:34:10;20.90;99.90
52743;DHT22;55583;53.012;6.556;2022-08-19T21:36:36;20.90;99.90
52743;DHT22;55583;53.012;6.556;2022-08-19T21:39:02;20.90;99.90
52743;DHT22;55583;53.012;6.556;2022-08-19T21:41:28;20.90;99.90
52743;DHT22;55583;53.012;6.556;2022-08-19T21:43:53;20.80;99.90
52743;DHT22;55583;53.012;6.556;2022-08-19T21:46:19;20.80;99.90
52743;DHT22;55583;53.012;6.556;2022-08-19T21:48:44;20.80;99.90
52743;DHT22;55583;53.012;6.556;2022-08-19T21:51:10;20.80;99.90
52743;DHT22;55583;53.012;6.556;2022-08-19T21:53:36;20.70;99.90
52743;DHT22;55583;53.012;6.556;2022-08-19T21:56:02;20.70;99.90
52743;DHT22;55583;53.012;6.556;2022-08-19T21:58:28;20.70;99.90
52743;DHT22;55583;53.012;6.556;2022-08-19T22:00:54;20.70;99.90
52743;DHT22;55583;53.012;6.556;2022-08-19T22:03:19;20.60;99.90
52743;DHT22;55583;53.012;6.556;2022-08-19T22:05:46;20.60;99.90
52743;DHT22;55583;53.012;6.556;2022-08-19T22:08:12;20.60;99.90
52743;DHT22;55583;53.012;6.556;2022-08-19T22:10:38;20.60;99.90
52743;DHT22;55583;53.012;6.556;2022-08-19T22:13:05;20.60;99.90
52743;DHT22;55583;53.012;6.556;2022-08-19T22:15:33;20.70;99.90
52743;DHT22;55583;53.012;6.556;2022-08-19T22:17:58;20.60;99.90
52743;DHT22;55583;53.012;6.556;2022-08-19T22:20:28;20.60;99.90
52743;DHT22;55583;53.012;6.556;2022-08-19T22:23:00;20.50;99.90
52743;DHT22;55583;53.012;6.556;2022-08-19T22:25:30;20.50;99.90
52743;DHT22;55583;53.012;6.556;2022-08-19T22:27:56;20.50;99.90
52743;DHT22;55583;53.012;6.556;2022-08-19T22:30:23;20.60;99.90
52743;DHT22;55583;53.012;6.556;2022-08-19T22:32:54;20.50;99.90
52743;DHT22;55583;53.012;6.556;2022-08-19T22:35:23;20.40;99.90
52743;DHT22;55583;53.012;6.556;2022-08-19T22:37:49;20.40;99.90
52743;DHT22;55583;53.012;6.556;2022-08-19T22:40:17;20.40;99.90
52743;DHT22;55583;53.012;6.556;2022-08-19T22:42:42;20.20;99.90
52743;DHT22;55583;53.012;6.556;2022-08-19T22:45:10;20.20;99.90
52743;DHT22;55583;53.012;6.556;2022-08-19T22:47:36;20.20;99.90
52743;DHT22;55583;53.012;6.556;2022-08-19T22:50:06;20.10;99.90
52743;DHT22;55583;53.012;6.556;2022-08-19T22:52:32;20.00;99.90
52743;DHT22;55583;53.012;6.556;2022-08-19T22:55:00;20.00;99.90
52743;DHT22;55583;53.012;6.556;2022-08-19T22:57:27;19.90;99.90
52743;DHT22;55583;53.012;6.556;2022-08-19T22:59:53;19.90;99.90
52743;DHT22;55583;53.012;6.556;2022-08-19T23:02:21;19.80;99.90
52743;DHT22;55583;53.012;6.556;2022-08-19T23:04:48;19.80;99.90
52743;DHT22;55583;53.012;6.556;2022-08-19T23:07:15;19.70;99.90
52743;DHT22;55583;53.012;6.556;2022-08-19T23:09:41;19.70;99.90
52743;DHT22;55583;53.012;6.556;2022-08-19T23:12:08;19.60;99.90
52743;DHT22;55583;53.012;6.556;2022-08-19T23:14:34;19.60;99.90
52743;DHT22;55583;53.012;6.556;2022-08-19T23:17:02;19.50;99.90
52743;DHT22;55583;53.012;6.556;2022-08-19T23:19:28;19.50;99.90
52743;DHT22;55583;53.012;6.556;2022-08-19T23:21:54;19.40;99.90
52743;DHT22;55583;53.012;6.556;2022-08-19T23:24:20;19.40;99.90
52743;DHT22;55583;53.012;6.556;2022-08-19T23:26:46;19.40;99.90
52743;DHT22;55583;53.012;6.556;2022-08-19T23:29:30;19.30;99.90
52743;DHT22;55583;53.012;6.556;2022-08-19T23:32:15;19.30;99.90
52743;DHT22;55583;53.012;6.556;2022-08-19T23:34:41;19.30;99.90
52743;DHT22;55583;53.012;6.556;2022-08-19T23:37:07;19.30;99.90
52743;DHT22;55583;53.012;6.556;2022-08-19T23:39:32;19.30;99.90
52743;DHT22;55583;53.012;6.556;2022-08-19T23:41:58;19.20;99.90
52743;DHT22;55583;53.012;6.556;2022-08-19T23:44:26;19.20;99.90
52743;DHT22;55583;53.012;6.556;2022-08-19T23:46:52;19.20;99.90
52743;DHT22;55583;53.012;6.556;2022-08-19T23:49:17;19.20;99.90
52743;DHT22;55583;53.012;6.556;2022-08-19T23:51:43;19.20;99.90
52743;DHT22;55583;53.012;6.556;2022-08-19T23:54:08;19.20;99.90
52743;DHT22;55583;53.012;6.556;2022-08-19T23:56:34;19.10;99.90
52743;DHT22;55583;53.012;6.556;2022-08-19T23:59:00;19.10;99.90
